createdAt,value
2022-08-05T00:00:20.350Z,19.20
2022-08-05T00:02:50.807Z,19.10
2022-08-05T00:05:27.131Z,19.10
2022-08-05T00:08:34.199Z,19.20
2022-08-05T00:11:00.952Z,19.20
2022-08-05T00:13:38.715Z,19.30
2022-08-05T00:16:12.943Z,19.30
2022-08-05T00:18:46.739Z,19.30
2022-08-05T00:21:17.665Z,19.40
2022-08-05T00:23:53.535Z,19.40
2022-08-05T00:26:32.623Z,19.30
2022-08-05T00:29:00.102Z,19.30
2022-08-05T00:31:54.309Z,19.30
2022-08-05T00:34:54.741Z,19.20
2022-08-05T00:37:09.902Z,19.20
2022-08-05T00:39:57.365Z,19.10
2022-08-05T00:42:34.328Z,19.10
2022-08-05T00:45:02.858Z,19.20
2022-08-05T00:47:53.208Z,19.20
2022-08-05T00:50:18.044Z,19.10
2022-08-05T00:52:46.782Z,19.10
2022-08-05T00:55:14.942Z,19.00
2022-08-05T00:57:58.337Z,19.00
2022-08-05T01:00:28.052Z,19.00
2022-08-05T01:02:59.680Z,18.80
2022-08-05T01:05:27.977Z,18.80
2022-08-05T01:08:30.676Z,18.70
2022-08-05T01:10:56.811Z,18.80
2022-08-05T01:13:58.847Z,18.90
2022-08-05T01:16:49.268Z,18.90
2022-08-05T01:19:36.775Z,18.90
2022-08-05T01:22:34.090Z,18.90
2022-08-05T01:25:40.220Z,18.90
2022-08-05T01:28:28.211Z,18.80
2022-08-05T01:31:15.440Z,18.70
2022-08-05T01:33:56.890Z,18.70
2022-08-05T01:36:30.368Z,18.70
2022-08-05T01:39:01.043Z,18.60
2022-08-05T01:41:31.091Z,18.50
2022-08-05T01:44:02.080Z,18.50
2022-08-05T01:46:42.442Z,18.50
2022-08-05T01:49:23.828Z,18.50
2022-08-05T01:51:58.377Z,18.50
2022-08-05T01:54:34.207Z,18.50
2022-08-05T01:58:10.297Z,18.50
2022-08-05T02:00:12.018Z,18.60
2022-08-05T02:03:16.404Z,18.50
2022-08-05T02:05:57.880Z,18.40
2022-08-05T02:08:31.326Z,18.30
2022-08-05T02:11:33.146Z,18.30
2022-08-05T02:14:14.739Z,18.30
2022-08-05T02:17:16.743Z,18.20
2022-08-05T02:20:01.941Z,18.20
2022-08-05T02:22:37.524Z,18.10
2022-08-05T02:25:12.547Z,18.10
2022-08-05T02:27:59.224Z,18.10
2022-08-05T02:30:34.471Z,18.00
2022-08-05T02:33:04.979Z,18.00
2022-08-05T02:35:43.767Z,18.00
2022-08-05T02:38:19.997Z,17.90
2022-08-05T02:40:54.702Z,17.90
2022-08-05T02:43:24.943Z,17.90
2022-08-05T02:45:54.081Z,17.90
2022-08-05T02:48:29.069Z,17.90
2022-08-05T02:51:01.116Z,18.00
2022-08-05T02:53:35.886Z,18.00
2022-08-05T02:56:16.111Z,17.90
2022-08-05T02:58:51.427Z,17.90
2022-08-05T03:01:28.435Z,17.90
2022-08-05T03:04:08.919Z,17.80
2022-08-05T03:06:54.853Z,17.80
2022-08-05T03:09:36.246Z,17.80
2022-08-05T03:12:06.004Z,17.90
2022-08-05T03:14:33.607Z,18.00
2022-08-05T03:17:01.052Z,18.00
2022-08-05T03:19:33.874Z,18.00
2022-08-05T03:22:04.898Z,18.10
2022-08-05T03:24:47.181Z,18.00
2022-08-05T03:27:19.092Z,18.00
2022-08-05T03:30:08.152Z,18.00
2022-08-05T03:32:34.759Z,18.00
2022-08-05T03:35:04.637Z,17.90
2022-08-05T03:37:46.417Z,17.90
2022-08-05T03:40:15.414Z,17.80
2022-08-05T03:42:52.886Z,17.80
2022-08-05T03:45:23.244Z,17.80
2022-08-05T03:47:51.701Z,17.80
2022-08-05T03:50:25.802Z,17.80
2022-08-05T03:55:06.709Z,17.90
2022-08-05T03:56:10.784Z,17.90
2022-08-05T03:58:44.774Z,18.10
2022-08-05T04:01:14.934Z,18.20
2022-08-05T04:04:05.434Z,18.20
2022-08-05T04:06:35.276Z,18.30
2022-08-05T04:09:06.389Z,18.40
2022-08-05T04:11:47.242Z,18.30
2022-08-05T04:14:18.191Z,18.40
2022-08-05T04:16:46.222Z,18.50
2022-08-05T04:19:14.962Z,18.60
2022-08-05T04:22:09.703Z,18.70
2022-08-05T04:24:32.548Z,18.80
2022-08-05T04:27:00.070Z,18.90
2022-08-05T04:29:28.483Z,19.00
2022-08-05T04:31:57.457Z,19.10
2022-08-05T04:34:32.637Z,19.20
2022-08-05T04:37:03.376Z,19.30
2022-08-05T04:39:32.151Z,19.50
2022-08-05T04:42:00.409Z,19.50
2022-08-05T04:44:30.610Z,19.60
2022-08-05T04:46:59.636Z,19.60
2022-08-05T04:49:39.118Z,19.60
2022-08-05T04:52:16.080Z,19.70
2022-08-05T04:54:43.745Z,19.70
2022-08-05T04:57:11.291Z,19.80
2022-08-05T04:59:40.704Z,19.90
2022-08-05T05:02:41.966Z,20.00
2022-08-05T05:05:02.841Z,20.00
2022-08-05T05:07:32.298Z,20.10
2022-08-05T05:10:04.531Z,20.20
2022-08-05T05:12:32.631Z,20.20
2022-08-05T05:15:00.106Z,20.20
2022-08-05T05:17:56.632Z,20.30
2022-08-05T05:20:28.691Z,20.40
2022-08-05T05:22:58.347Z,20.40
2022-08-05T05:25:40.585Z,20.50
2022-08-05T05:28:10.392Z,20.60
2022-08-05T05:30:39.101Z,20.70
2022-08-05T05:33:16.439Z,20.80
2022-08-05T05:35:47.698Z,20.80
2022-08-05T05:38:22.628Z,20.80
2022-08-05T05:40:58.173Z,20.90
2022-08-05T05:43:56.488Z,21.00
2022-08-05T05:46:15.915Z,21.10
2022-08-05T05:48:48.306Z,21.10
2022-08-05T05:51:20.897Z,21.20
2022-08-05T05:53:57.227Z,21.20
2022-08-05T05:56:32.618Z,21.20
2022-08-05T05:59:06.997Z,21.30
2022-08-05T06:01:37.980Z,21.30
2022-08-05T06:04:11.954Z,21.40
2022-08-05T06:06:47.788Z,21.60
2022-08-05T06:09:25.646Z,21.60
2022-08-05T06:12:00.034Z,21.60
2022-08-05T06:14:31.014Z,21.70
2022-08-05T06:16:59.267Z,21.80
2022-08-05T06:19:35.088Z,21.90
2022-08-05T06:22:04.477Z,22.00
2022-08-05T06:24:42.205Z,22.00
2022-08-05T06:28:09.053Z,22.10
2022-08-05T06:30:20.909Z,22.10
2022-08-05T06:32:50.800Z,22.20
2022-08-05T06:36:03.715Z,22.30
2022-08-05T06:38:10.113Z,22.40
2022-08-05T06:40:44.678Z,22.60
2022-08-05T06:43:58.622Z,22.70
2022-08-05T06:46:06.608Z,22.80
2022-08-05T06:48:55.338Z,22.80
2022-08-05T06:51:30.050Z,22.80
2022-08-05T06:54:00.140Z,22.90
2022-08-05T06:56:34.861Z,23.00
2022-08-05T06:59:09.415Z,23.10
2022-08-05T07:01:40.482Z,23.10
2022-08-05T07:04:09.373Z,23.20
2022-08-05T07:06:37.456Z,23.20
2022-08-05T07:09:05.326Z,23.20
2022-08-05T07:11:37.078Z,23.30
2022-08-05T07:14:29.449Z,23.30
2022-08-05T07:18:00.226Z,23.40
2022-08-05T07:22:38.836Z,23.60
2022-08-05T07:25:53.904Z,23.70
2022-08-05T07:28:03.813Z,23.70
2022-08-05T07:30:39.094Z,23.80
2022-08-05T07:33:15.708Z,23.90
2022-08-05T07:36:03.456Z,24.00
2022-08-05T07:38:42.655Z,24.00
2022-08-05T07:42:12.976Z,24.00
2022-08-05T07:44:12.136Z,24.20
2022-08-05T07:46:48.505Z,24.40
2022-08-05T07:49:18.173Z,24.50
2022-08-05T07:51:53.841Z,24.60
2022-08-05T07:54:30.203Z,24.80
2022-08-05T07:57:01.950Z,24.90
2022-08-05T07:59:46.920Z,25.00
2022-08-05T08:02:17.840Z,25.10
2022-08-05T08:04:47.646Z,25.30
2022-08-05T08:07:17.892Z,25.50
2022-08-05T08:09:47.153Z,25.80
2022-08-05T08:12:35.103Z,26.10
2022-08-05T08:15:04.734Z,26.10
2022-08-05T08:17:37.490Z,26.20
2022-08-05T08:20:42.778Z,26.20
2022-08-05T08:22:56.162Z,26.30
2022-08-05T08:25:26.771Z,26.10
2022-08-05T08:28:04.090Z,25.90
2022-08-05T08:30:40.841Z,25.70
2022-08-05T08:33:15.811Z,25.70
2022-08-05T08:35:52.929Z,25.70
2022-08-05T08:38:35.574Z,25.70
2022-08-05T08:41:10.277Z,25.70
2022-08-05T08:45:21.241Z,25.60
2022-08-05T08:46:32.459Z,25.70
2022-08-05T08:50:05.720Z,25.70
2022-08-05T08:52:13.102Z,25.80
2022-08-05T08:54:43.091Z,26.00
2022-08-05T08:57:13.730Z,26.00
2022-08-05T08:59:47.240Z,26.00
2022-08-05T09:02:19.375Z,26.00
2022-08-05T09:05:16.858Z,26.00
2022-08-05T09:07:40.077Z,26.20
2022-08-05T09:10:27.650Z,26.40
2022-08-05T09:12:57.111Z,26.60
2022-08-05T09:15:32.474Z,26.40
2022-08-05T09:18:08.988Z,26.50
2022-08-05T09:20:42.032Z,26.90
2022-08-05T09:23:18.531Z,27.30
2022-08-05T09:26:01.345Z,27.50
2022-08-05T09:28:33.834Z,27.40
2022-08-05T09:31:22.252Z,27.30
2022-08-05T09:34:01.707Z,27.30
2022-08-05T09:36:56.352Z,27.20
2022-08-05T09:39:41.990Z,27.30
2022-08-05T09:42:28.099Z,27.40
2022-08-05T09:45:17.376Z,27.40
2022-08-05T09:47:54.990Z,27.60
2022-08-05T09:50:45.164Z,28.00
2022-08-05T09:53:22.792Z,28.30
2022-08-05T09:56:03.729Z,28.40
2022-08-05T09:58:32.590Z,28.50
2022-08-05T10:01:13.581Z,28.60
2022-08-05T10:04:00.269Z,28.60
2022-08-05T10:06:28.473Z,28.70
2022-08-05T10:09:09.644Z,28.50
2022-08-05T10:11:52.904Z,28.10
2022-08-05T10:14:32.226Z,27.90
2022-08-05T10:17:38.118Z,27.90
2022-08-05T10:20:09.632Z,28.30
2022-08-05T10:22:42.809Z,28.90
2022-08-05T10:25:16.625Z,29.20
2022-08-05T10:28:12.679Z,28.90
2022-08-05T10:31:20.102Z,28.60
2022-08-05T10:33:29.013Z,28.50
2022-08-05T10:35:59.285Z,28.20
2022-08-05T10:38:33.024Z,28.10
2022-08-05T10:41:23.897Z,28.10
2022-08-05T10:43:54.440Z,28.50
2022-08-05T10:46:23.767Z,28.70
2022-08-05T10:49:10.493Z,28.90
2022-08-05T10:51:59.893Z,28.90
2022-08-05T10:55:05.156Z,29.00
2022-08-05T10:57:34.247Z,29.10
2022-08-05T11:00:19.605Z,29.30
2022-08-05T11:03:23.148Z,29.70
2022-08-05T11:06:08.515Z,30.40
2022-08-05T11:09:16.358Z,31.20
2022-08-05T11:11:52.544Z,32.30
2022-08-05T11:14:57.772Z,32.40
2022-08-05T11:17:56.852Z,32.40
2022-08-05T11:20:41.731Z,32.90
2022-08-05T11:24:03.228Z,32.60
2022-08-05T11:26:28.311Z,31.90
2022-08-05T11:29:11.600Z,31.10
2022-08-05T11:31:58.242Z,30.70
2022-08-05T11:34:39.833Z,30.40
2022-08-05T11:38:29.747Z,30.30
2022-08-05T11:39:55.505Z,30.20
2022-08-05T11:42:37.951Z,31.30
2022-08-05T11:45:23.291Z,33.30
2022-08-05T11:47:57.691Z,35.10
2022-08-05T11:50:26.627Z,36.30
2022-08-05T11:52:57.937Z,37.00
2022-08-05T11:55:32.377Z,37.50
2022-08-05T11:58:10.289Z,36.60
2022-08-05T12:00:41.381Z,34.90
2022-08-05T12:03:31.887Z,33.50
2022-08-05T12:06:05.859Z,32.30
2022-08-05T12:08:51.012Z,31.60
2022-08-05T12:11:28.417Z,32.50
2022-08-05T12:14:08.673Z,33.70
2022-08-05T12:16:40.329Z,34.50
2022-08-05T12:20:26.766Z,34.40
2022-08-05T12:22:01.051Z,34.90
2022-08-05T12:24:30.141Z,35.50
2022-08-05T12:26:58.378Z,34.80
2022-08-05T12:29:27.320Z,33.80
2022-08-05T12:32:01.707Z,31.60
2022-08-05T12:34:37.090Z,30.00
2022-08-05T12:37:17.098Z,28.70
2022-08-05T12:40:03.573Z,27.60
2022-08-05T12:42:40.194Z,26.60
2022-08-05T12:45:10.349Z,26.00
2022-08-05T12:48:01.056Z,25.50
2022-08-05T12:50:26.502Z,25.20
2022-08-05T12:53:00.432Z,25.00
2022-08-05T12:55:32.481Z,25.00
2022-08-05T12:58:48.268Z,25.00
2022-08-05T13:02:03.019Z,25.00
2022-08-05T13:03:41.737Z,25.20
2022-08-05T13:06:20.002Z,25.30
2022-08-05T13:08:51.469Z,25.50
2022-08-05T13:12:01.748Z,25.70
2022-08-05T13:14:36.542Z,25.90
2022-08-05T13:17:14.701Z,26.00
2022-08-05T13:19:57.629Z,26.10
2022-08-05T13:22:29.160Z,26.60
2022-08-05T13:25:00.745Z,28.50
2022-08-05T13:27:39.303Z,31.00
2022-08-05T13:30:33.896Z,33.10
2022-08-05T13:33:01.540Z,34.90
2022-08-05T13:35:43.365Z,36.10
2022-08-05T13:38:28.489Z,37.00
2022-08-05T13:41:01.713Z,37.40
2022-08-05T13:43:44.495Z,37.90
2022-08-05T13:46:30.816Z,37.40
2022-08-05T13:49:06.067Z,36.80
2022-08-05T13:51:41.563Z,36.20
2022-08-05T13:54:11.731Z,34.50
2022-08-05T13:56:50.867Z,33.00
2022-08-05T13:59:24.846Z,32.00
2022-08-05T14:01:59.456Z,30.90
2022-08-05T14:04:51.866Z,30.00
2022-08-05T14:08:00.058Z,29.00
2022-08-05T14:10:28.853Z,28.10
2022-08-05T14:12:59.758Z,27.70
2022-08-05T14:16:08.274Z,27.50
2022-08-05T14:18:17.789Z,27.80
2022-08-05T14:20:54.377Z,28.20
2022-08-05T14:23:25.762Z,29.80
2022-08-05T14:25:58.616Z,31.70
2022-08-05T14:28:28.690Z,32.50
2022-08-05T14:31:00.869Z,32.70
2022-08-05T14:33:56.777Z,33.20
2022-08-05T14:36:21.270Z,33.70
2022-08-05T14:38:50.677Z,34.20
2022-08-05T14:41:18.929Z,34.50
2022-08-05T14:43:57.673Z,35.10
2022-08-05T14:46:35.029Z,35.30
2022-08-05T14:49:07.417Z,35.50
2022-08-05T14:51:42.808Z,35.10
2022-08-05T14:54:28.159Z,35.20
2022-08-05T14:56:58.260Z,35.50
2022-08-05T14:59:29.405Z,35.50
2022-08-05T15:02:14.819Z,35.50
2022-08-05T15:04:44.959Z,35.20
2022-08-05T15:08:06.315Z,35.00
2022-08-05T15:10:03.288Z,34.80
2022-08-05T15:12:41.097Z,35.10
2022-08-05T15:15:18.577Z,35.50
2022-08-05T15:18:06.186Z,35.40
2022-08-05T15:20:34.004Z,35.50
2022-08-05T15:23:06.152Z,35.40
2022-08-05T15:25:51.965Z,35.60
2022-08-05T15:28:23.039Z,35.60
2022-08-05T15:30:55.410Z,35.50
2022-08-05T15:34:05.345Z,35.30
2022-08-05T15:36:17.746Z,35.30
2022-08-05T15:40:41.174Z,35.30
2022-08-05T15:41:57.533Z,35.20
2022-08-05T15:44:29.947Z,35.30
2022-08-05T15:46:59.399Z,35.20
2022-08-05T15:49:48.094Z,35.20
2022-08-05T15:52:29.111Z,34.90
2022-08-05T15:55:03.785Z,34.50
2022-08-05T15:57:33.164Z,34.20
2022-08-05T16:00:06.582Z,33.90
2022-08-05T16:02:34.275Z,33.70
2022-08-05T16:05:02.001Z,33.60
2022-08-05T16:07:29.789Z,33.60
2022-08-05T16:09:57.376Z,33.60
2022-08-05T16:12:25.107Z,33.40
2022-08-05T16:14:52.866Z,33.20
2022-08-05T16:17:20.400Z,32.90
2022-08-05T16:20:03.255Z,32.60
2022-08-05T16:22:34.222Z,32.30
2022-08-05T16:25:08.158Z,32.10
2022-08-05T16:27:59.952Z,32.00
2022-08-05T16:30:28.792Z,31.90
2022-08-05T16:32:58.061Z,31.80
2022-08-05T16:35:28.617Z,31.70
2022-08-05T16:38:16.265Z,31.70
2022-08-05T16:40:55.457Z,31.60
2022-08-05T16:43:28.908Z,31.60
2022-08-05T16:46:06.977Z,31.60
2022-08-05T16:48:44.123Z,31.40
2022-08-05T16:51:11.685Z,31.10
2022-08-05T16:54:03.946Z,30.90
2022-08-05T16:56:30.089Z,30.60
2022-08-05T16:58:58.780Z,30.30
2022-08-05T17:01:28.216Z,30.20
2022-08-05T17:04:15.543Z,30.00
2022-08-05T17:06:46.151Z,29.80
2022-08-05T17:09:21.447Z,29.70
2022-08-05T17:11:55.921Z,29.60
2022-08-05T17:14:36.756Z,29.50
2022-08-05T17:17:14.289Z,29.40
2022-08-05T17:19:45.320Z,29.10
2022-08-05T17:22:17.732Z,29.00
2022-08-05T17:24:57.781Z,28.80
2022-08-05T17:27:33.607Z,28.60
2022-08-05T17:30:12.050Z,28.40
2022-08-05T17:32:46.467Z,28.30
2022-08-05T17:35:15.515Z,28.00
2022-08-05T17:37:48.381Z,27.70
2022-08-05T17:40:17.638Z,27.30
2022-08-05T17:42:50.597Z,27.10
2022-08-05T17:45:22.156Z,26.70
2022-08-05T17:47:55.697Z,26.50
2022-08-05T17:50:30.316Z,26.30
2022-08-05T17:53:00.468Z,26.00
2022-08-05T17:55:38.389Z,25.90
2022-08-05T17:58:12.443Z,25.70
2022-08-05T18:00:45.366Z,25.60
2022-08-05T18:03:55.870Z,25.40
2022-08-05T18:06:12.034Z,25.30
2022-08-05T18:08:52.395Z,25.20
2022-08-05T18:11:24.419Z,25.10
2022-08-05T18:14:06.808Z,24.90
2022-08-05T18:16:51.028Z,24.80
2022-08-05T18:19:22.891Z,24.80
2022-08-05T18:22:07.692Z,24.70
2022-08-05T18:24:39.631Z,24.60
2022-08-05T18:27:18.555Z,24.50
2022-08-05T18:29:53.550Z,24.40
2022-08-05T18:32:28.269Z,24.40
2022-08-05T18:34:56.604Z,24.30
2022-08-05T18:37:34.458Z,24.30
2022-08-05T18:41:52.665Z,24.20
2022-08-05T18:42:57.060Z,24.10
2022-08-05T18:45:24.964Z,24.00
2022-08-05T18:48:11.275Z,23.90
2022-08-05T18:51:01.796Z,23.90
2022-08-05T18:53:50.169Z,23.90
2022-08-05T18:56:21.818Z,23.90
2022-08-05T18:58:54.733Z,23.90
2022-08-05T19:01:33.272Z,23.80
2022-08-05T19:04:12.376Z,23.80
2022-08-05T19:06:44.822Z,23.70
2022-08-05T19:09:13.043Z,23.70
2022-08-05T19:12:00.945Z,23.70
2022-08-05T19:14:59.391Z,23.60
2022-08-05T19:17:16.656Z,23.50
2022-08-05T19:19:47.036Z,23.40
2022-08-05T19:22:17.736Z,23.30
2022-08-05T19:24:56.057Z,23.30
2022-08-05T19:27:30.168Z,23.20
2022-08-05T19:29:58.536Z,23.10
2022-08-05T19:32:27.841Z,23.10
2022-08-05T19:34:57.823Z,23.00
2022-08-05T19:37:29.923Z,23.00
2022-08-05T19:40:15.094Z,23.00
2022-08-05T19:42:42.754Z,22.90
2022-08-05T19:45:30.565Z,22.90
2022-08-05T19:48:04.531Z,22.80
2022-08-05T19:50:33.021Z,22.70
2022-08-05T19:53:10.244Z,22.70
2022-08-05T19:56:15.440Z,22.60
2022-08-05T19:58:29.103Z,22.50
2022-08-05T20:00:58.120Z,22.50
2022-08-05T20:03:26.506Z,22.50
2022-08-05T20:05:56.680Z,22.40
2022-08-05T20:08:25.416Z,22.40
2022-08-05T20:10:54.259Z,22.40
2022-08-05T20:13:25.826Z,22.40
2022-08-05T20:15:58.020Z,22.40
2022-08-05T20:18:32.825Z,22.30
2022-08-05T20:21:05.067Z,22.20
2022-08-05T20:23:39.269Z,22.20
2022-08-05T20:26:17.700Z,22.10
2022-08-05T20:28:48.875Z,22.00
2022-08-05T20:31:17.734Z,21.90
2022-08-05T20:33:49.612Z,21.90
2022-08-05T20:36:17.974Z,21.90
2022-08-05T20:38:54.265Z,21.80
2022-08-05T20:41:43.120Z,21.70
2022-08-05T20:44:18.413Z,21.70
2022-08-05T20:47:05.358Z,21.70
2022-08-05T20:49:39.466Z,21.60
2022-08-05T20:52:08.778Z,21.60
2022-08-05T20:54:55.065Z,21.60
2022-08-05T20:57:43.894Z,21.50
2022-08-05T21:00:41.642Z,21.50
2022-08-05T21:03:08.110Z,21.40
2022-08-05T21:05:47.955Z,21.30
2022-08-05T21:08:26.890Z,21.30
2022-08-05T21:12:00.719Z,21.20
2022-08-05T21:14:01.427Z,21.10
2022-08-05T21:16:30.788Z,21.10
2022-08-05T21:19:00.851Z,21.00
2022-08-05T21:21:43.943Z,21.00
2022-08-05T21:24:19.526Z,20.90
2022-08-05T21:26:53.309Z,20.90
2022-08-05T21:29:26.430Z,20.90
2022-08-05T21:31:59.420Z,20.90
2022-08-05T21:34:26.914Z,20.90
2022-08-05T21:36:55.784Z,20.80
2022-08-05T21:39:26.769Z,20.80
2022-08-05T21:42:01.817Z,20.80
2022-08-05T21:44:31.830Z,20.70
2022-08-05T21:47:00.070Z,20.70
2022-08-05T21:50:00.131Z,20.70
2022-08-05T21:52:27.632Z,20.60
2022-08-05T21:55:06.458Z,20.60
2022-08-05T21:57:35.720Z,20.60
2022-08-05T22:00:06.943Z,20.60
2022-08-05T22:02:39.092Z,20.60
2022-08-05T22:05:08.922Z,20.60
2022-08-05T22:07:39.801Z,20.60
2022-08-05T22:10:25.533Z,20.50
2022-08-05T22:12:59.121Z,20.50
2022-08-05T22:16:01.061Z,20.40
2022-08-05T22:18:24.900Z,20.30
2022-08-05T22:20:53.852Z,20.30
2022-08-05T22:24:02.509Z,20.30
2022-08-05T22:26:49.727Z,20.30
2022-08-05T22:29:26.823Z,20.20
2022-08-05T22:32:02.555Z,20.20
2022-08-05T22:34:31.905Z,20.20
2022-08-05T22:37:00.022Z,20.20
2022-08-05T22:39:33.277Z,20.10
2022-08-05T22:42:10.314Z,20.20
2022-08-05T22:44:42.764Z,20.20
2022-08-05T22:47:29.237Z,20.20
2022-08-05T22:50:21.041Z,20.10
2022-08-05T22:52:48.689Z,20.00
2022-08-05T22:55:19.011Z,19.90
2022-08-05T22:57:49.279Z,19.80
2022-08-05T23:00:20.605Z,19.80
2022-08-05T23:02:49.800Z,19.90
2022-08-05T23:05:19.182Z,19.90
2022-08-05T23:07:51.242Z,19.90
2022-08-05T23:10:20.644Z,19.80
2022-08-05T23:12:55.060Z,19.80
2022-08-05T23:15:29.933Z,19.80
2022-08-05T23:18:03.282Z,19.80
2022-08-05T23:20:37.367Z,19.80
2022-08-05T23:23:05.915Z,19.80
2022-08-05T23:25:51.364Z,19.70
2022-08-05T23:28:22.245Z,19.70
2022-08-05T23:30:53.077Z,19.70
2022-08-05T23:33:26.335Z,19.60
2022-08-05T23:36:10.614Z,19.60
2022-08-05T23:38:38.620Z,19.60
2022-08-05T23:41:06.192Z,19.60
2022-08-05T23:43:37.220Z,19.60
2022-08-05T23:46:22.319Z,19.60
2022-08-05T23:48:59.912Z,19.50
2022-08-05T23:51:57.165Z,19.50
2022-08-05T23:54:36.477Z,19.50
2022-08-05T23:57:07.144Z,19.40
